Bright Shade, Kentucky
Current Conditions -  °F | °C
As of 12:20 PM on Friday 31 Oct 2014 (Local Time) from KLOZ Reporting Station
Light Rain Light Rain  
Wind Chill: 42°   Ceiling: 800
Heat Index: 46°   Visibility: 9mi
Dew Point: 42°   Wind: 7mph
Humidity: 86%   Direction: 290°WNW
Pressure: 29.97"   Gusts: NA
Location:  37.1101°N, 83.7537°W
Report Text: KLOZ 311620Z AUTO 29006KT 9SM -RA BKN008 OVC040 08/06 A2997 RMK AO2 P0001 T00780056
Loading
Personal Weather Stations






























Interactive Weather Map
Tropical Storm Tracking
New forecast layout! Learn more

10-Day Weather Forecast

Advertisements
Track Severe Weather on mobile